ボゴタ の空港の天気 - METARとTAF

エルドラド国際空港(ボコダ) ( SKBO / BOG ) - コロンビア ボゴタ
飛行場実況気象(Metar)
観測時間01/22 23:00 COT (01/23 04:00 UTC)
風向・風速北東 2m/s
視程10km以上
天気現象
少しの雲 雲底高度 610m
全天の4割程度の雲 雲底高度 6100m
気温9℃
湿度81%
気圧1026hPa
METARSKBO 230400Z 05004KT 9999 FEW020 SCT200 09/06 A3029
過去の天気等 Google飛行場航空写真 Wunderground天気予報

過去48時間のMETAR

飛行場予報(TAF)
発表時間: 1/22 18:00 COT (1/22 23:00 UTC)
予報対象時間: 22日19時 COT ~ 23日19時 COT
風向・風速東北東 3m/s
視程10km以上
全天の4割程度の雲 雲底高度 610m
全天の4割程度の雲 雲底高度 2,740m
22日19時 COT ~ 22日22時 COT に一時的に
視程8,000m
天気現象周辺でしゅう雨
全天の4割程度の塔状積雲 雲底高度 550m
23日4時 COT ~ 23日7時 COT に一時的に
視程7,000m
天気現象周辺で霧
全天の4割程度の雲 雲底高度 460m
23日12時 COT ~ 23日19時 COT に一時的に
風向・風速南東 5m/s
全天の4割程度の雲 雲底高度 700m
23日14時 COT から 確率 40% で
視程8,000m
天気現象周辺でしゅう雨
全天の4割程度の塔状積雲 雲底高度 550m
TAF SKBO 222300Z 2300/2324 06006KT 9999 SCT020 SCT090
TEMPO 2300/2303 8000 VCSH SCT018TCU
TEMPO 2309/2312 7000 VCFG SCT015
TEMPO 2317/2324 13010KT SCT023
PROB40 2319/2320 8000 VCSH SCT018TCU TX20/2318Z TN07/2311Z